createdAt,value
2022-11-13T00:00:01.382Z,6.00
2022-11-13T00:01:01.373Z,9.30
2022-11-13T00:02:01.357Z,7.20
2022-11-13T00:03:01.359Z,7.10
2022-11-13T00:04:01.326Z,8.40
2022-11-13T00:05:01.326Z,7.00
2022-11-13T00:06:01.427Z,10.80
2022-11-13T00:07:01.392Z,7.60
2022-11-13T00:08:01.316Z,7.10
2022-11-13T00:09:01.285Z,6.90
2022-11-13T00:10:01.270Z,8.60
2022-11-13T00:11:01.291Z,7.90
2022-11-13T00:12:01.254Z,9.50
2022-11-13T00:13:01.231Z,7.60
2022-11-13T00:14:01.235Z,6.20
2022-11-13T00:15:01.207Z,7.50
2022-11-13T00:16:01.213Z,6.40
2022-11-13T00:17:01.181Z,7.00
2022-11-13T00:18:01.185Z,7.00
2022-11-13T00:19:01.170Z,9.00
2022-11-13T00:20:01.180Z,11.20
2022-11-13T00:21:01.160Z,8.90
2022-11-13T00:22:01.262Z,6.80
2022-11-13T00:23:01.120Z,8.00
2022-11-13T00:24:01.131Z,11.50
2022-11-13T00:25:01.108Z,8.50
2022-11-13T00:26:01.093Z,9.10
2022-11-13T00:27:01.118Z,7.60
2022-11-13T00:28:01.073Z,9.40
2022-11-13T00:29:01.063Z,6.50
2022-11-13T00:30:01.057Z,7.70
2022-11-13T00:31:01.042Z,7.10
2022-11-13T00:32:01.026Z,7.80
2022-11-13T00:33:01.039Z,6.10
2022-11-13T00:35:02.000Z,7.10
2022-11-13T00:36:01.001Z,7.70
2022-11-13T00:37:00.966Z,6.60
2022-11-13T00:38:01.082Z,8.00
2022-11-13T00:39:00.954Z,9.00
2022-11-13T00:40:00.944Z,8.30
2022-11-13T00:41:00.954Z,5.40
2022-11-13T00:42:00.912Z,9.00
2022-11-13T00:43:00.899Z,8.70
2022-11-13T00:44:00.919Z,6.50
2022-11-13T00:45:00.889Z,8.20
2022-11-13T00:46:00.882Z,7.60
2022-11-13T00:47:00.866Z,7.60
2022-11-13T00:48:00.848Z,7.50
2022-11-13T00:49:00.837Z,8.40
2022-11-13T00:50:00.896Z,8.20
2022-11-13T00:51:00.814Z,10.20
2022-11-13T00:52:00.814Z,8.30
2022-11-13T00:53:00.785Z,7.50
2022-11-13T00:54:00.898Z,8.30
2022-11-13T00:55:00.789Z,6.00
2022-11-13T00:56:00.763Z,9.00
2022-11-13T00:57:00.751Z,7.50
2022-11-13T00:58:00.820Z,8.70
2022-11-13T00:59:00.721Z,8.60
2022-11-13T01:00:00.727Z,6.90
2022-11-13T01:01:00.712Z,8.20
2022-11-13T01:02:00.727Z,7.10
2022-11-13T01:03:00.683Z,7.40
2022-11-13T01:04:00.671Z,8.30
2022-11-13T01:05:00.669Z,7.20
2022-11-13T01:06:00.652Z,7.30
2022-11-13T01:07:00.721Z,7.90
2022-11-13T01:08:00.620Z,6.60
2022-11-13T01:09:00.628Z,8.10
2022-11-13T01:10:00.720Z,7.00
2022-11-13T01:11:00.597Z,6.60
2022-11-13T01:12:00.590Z,8.10
2022-11-13T01:13:00.577Z,7.30
2022-11-13T01:14:00.566Z,6.80
2022-11-13T01:15:00.551Z,7.00
2022-11-13T01:16:00.554Z,7.60
2022-11-13T01:17:00.538Z,9.80
2022-11-13T01:18:00.508Z,7.60
2022-11-13T01:19:00.499Z,7.80
2022-11-13T01:20:00.490Z,9.40
2022-11-13T01:21:00.479Z,7.90
2022-11-13T01:22:00.466Z,7.00
2022-11-13T01:23:00.464Z,9.90
2022-11-13T01:24:00.455Z,6.00
2022-11-13T01:25:00.440Z,6.90
2022-11-13T01:26:00.552Z,8.60
2022-11-13T01:27:00.413Z,9.00
2022-11-13T01:28:00.436Z,8.00
2022-11-13T01:29:00.392Z,8.20
2022-11-13T01:30:00.380Z,7.30
2022-11-13T01:31:00.373Z,8.50
2022-11-13T01:32:00.380Z,8.30
2022-11-13T01:33:00.362Z,7.10
2022-11-13T01:34:00.355Z,7.90
2022-11-13T01:35:00.347Z,8.50
2022-11-13T01:36:00.320Z,8.10
2022-11-13T01:37:00.345Z,8.40
2022-11-13T01:38:00.304Z,9.00
2022-11-13T01:39:00.279Z,8.10
2022-11-13T01:40:00.272Z,8.80
2022-11-13T01:41:00.258Z,8.10
2022-11-13T01:42:00.379Z,8.40
2022-11-13T01:43:00.263Z,8.30
2022-11-13T01:44:00.230Z,8.00
2022-11-13T01:45:00.223Z,9.00
2022-11-13T01:46:00.219Z,6.90
2022-11-13T01:47:00.201Z,8.20
2022-11-13T01:48:00.193Z,8.60
2022-11-13T01:49:00.203Z,7.80
2022-11-13T01:50:00.158Z,8.20
2022-11-13T01:51:00.158Z,6.60
2022-11-13T01:52:00.155Z,7.90
2022-11-13T01:53:00.130Z,6.90
2022-11-13T01:54:00.120Z,6.90
2022-11-13T01:55:00.138Z,8.80
2022-11-13T01:56:00.104Z,8.20
2022-11-13T01:57:00.096Z,7.60
2022-11-13T01:58:00.206Z,8.60
2022-11-13T01:59:00.070Z,8.10
2022-11-13T02:00:00.070Z,8.60
2022-11-13T02:01:00.057Z,9.70
2022-11-13T02:02:00.082Z,8.60
2022-11-13T02:03:00.042Z,7.70
2022-11-13T02:04:00.034Z,9.00
2022-11-13T02:05:00.022Z,7.50
2022-11-13T02:06:00.000Z,9.30
2022-11-13T02:07:00.026Z,9.20
2022-11-13T02:07:59.962Z,9.70
2022-11-13T02:08:59.959Z,7.60
2022-11-13T02:09:59.988Z,10.70
2022-11-13T02:10:59.934Z,6.20
2022-11-13T02:11:59.938Z,8.80
2022-11-13T02:12:59.912Z,8.70
2022-11-13T02:14:00.018Z,8.70
2022-11-13T02:14:59.900Z,7.40
2022-11-13T02:15:59.902Z,8.80
2022-11-13T02:16:59.864Z,7.50
2022-11-13T02:17:59.869Z,9.20
2022-11-13T02:18:59.850Z,7.90
2022-11-13T02:19:59.833Z,6.80
2022-11-13T02:20:59.822Z,8.50
2022-11-13T02:21:59.830Z,9.90
2022-11-13T02:22:59.822Z,8.60
2022-11-13T02:23:59.787Z,8.70
2022-11-13T02:24:59.780Z,8.00
2022-11-13T02:25:59.767Z,8.40
2022-11-13T02:26:59.759Z,8.10
2022-11-13T02:27:59.769Z,7.40
2022-11-13T02:28:59.744Z,7.30
2022-11-13T02:29:59.842Z,6.80
2022-11-13T02:30:59.727Z,8.20
2022-11-13T02:31:59.703Z,6.60
2022-11-13T02:32:59.696Z,6.90
2022-11-13T02:33:59.676Z,9.00
2022-11-13T02:34:59.669Z,7.50
2022-11-13T02:35:59.688Z,9.30
2022-11-13T02:36:59.651Z,7.50
2022-11-13T02:37:59.647Z,7.10
2022-11-13T02:38:59.661Z,7.60
2022-11-13T02:39:59.618Z,8.60
2022-11-13T02:40:59.620Z,8.70
2022-11-13T02:41:59.588Z,9.90
2022-11-13T02:42:59.586Z,9.50
2022-11-13T02:43:59.579Z,9.00
2022-11-13T02:44:59.563Z,8.90
2022-11-13T02:45:59.675Z,8.40
2022-11-13T02:46:59.540Z,8.30
2022-11-13T02:47:59.536Z,8.00
2022-11-13T02:48:59.524Z,7.40
2022-11-13T02:49:59.508Z,7.90
2022-11-13T02:50:59.492Z,9.80
2022-11-13T02:51:59.477Z,11.30
2022-11-13T02:52:59.560Z,9.90
2022-11-13T02:53:59.464Z,8.70
2022-11-13T02:54:59.477Z,9.20
2022-11-13T02:55:59.450Z,10.40
2022-11-13T02:56:59.441Z,7.70
2022-11-13T02:57:59.414Z,8.60
2022-11-13T02:58:59.436Z,9.60
2022-11-13T02:59:59.400Z,8.00
2022-11-13T03:00:59.380Z,9.80
2022-11-13T03:01:59.517Z,8.50
2022-11-13T03:02:59.371Z,10.50
2022-11-13T03:03:59.371Z,8.30
2022-11-13T03:05:14.752Z,10.30
2022-11-13T03:06:00.333Z,10.50
2022-11-13T03:06:59.368Z,11.20
2022-11-13T03:07:59.315Z,9.00
2022-11-13T03:08:59.323Z,8.50
2022-11-13T03:09:59.296Z,9.00
2022-11-13T03:10:59.286Z,10.50
2022-11-13T03:11:59.277Z,9.40
2022-11-13T03:12:59.274Z,7.40
2022-11-13T03:13:59.234Z,9.10
2022-11-13T03:14:59.233Z,9.20
2022-11-13T03:15:59.224Z,8.40
2022-11-13T03:16:59.215Z,8.60
2022-11-13T03:17:59.321Z,13.10
2022-11-13T03:18:59.186Z,10.30
2022-11-13T03:19:59.181Z,7.70
2022-11-13T03:20:59.166Z,9.70
2022-11-13T03:21:59.158Z,8.10
2022-11-13T03:22:59.140Z,9.40
2022-11-13T03:23:59.130Z,8.60
2022-11-13T03:24:59.150Z,9.80
2022-11-13T03:25:59.131Z,11.80
2022-11-13T03:26:59.139Z,11.00
2022-11-13T03:27:59.085Z,10.80
2022-11-13T03:28:59.086Z,8.70
2022-11-13T03:29:59.067Z,12.70
2022-11-13T03:30:59.078Z,12.30
2022-11-13T03:31:59.062Z,9.10
2022-11-13T03:32:59.049Z,9.80
2022-11-13T03:33:59.137Z,8.80
2022-11-13T03:34:59.007Z,8.70
2022-11-13T03:35:59.012Z,9.10
2022-11-13T03:36:58.988Z,9.30
2022-11-13T03:37:58.973Z,9.00
2022-11-13T03:38:58.975Z,8.30
2022-11-13T03:39:58.957Z,10.20
2022-11-13T03:40:58.965Z,6.80
2022-11-13T03:41:58.952Z,7.20
2022-11-13T03:42:58.923Z,8.90
2022-11-13T03:43:58.913Z,9.70
2022-11-13T03:44:58.926Z,9.40
2022-11-13T03:45:58.898Z,9.90
2022-11-13T03:46:58.898Z,7.20
2022-11-13T03:47:58.876Z,11.00
2022-11-13T03:48:58.877Z,7.70
2022-11-13T03:49:58.976Z,9.10
2022-11-13T03:50:58.844Z,8.10
2022-11-13T03:51:58.825Z,8.10
2022-11-13T03:52:58.814Z,10.50
2022-11-13T03:53:58.826Z,8.10
2022-11-13T03:54:58.790Z,9.20
2022-11-13T03:55:58.846Z,9.70
2022-11-13T03:56:58.762Z,7.80
2022-11-13T03:57:58.793Z,11.10
2022-11-13T03:58:58.748Z,9.10
2022-11-13T03:59:58.739Z,11.50
2022-11-13T04:00:58.727Z,10.00
2022-11-13T04:01:58.762Z,8.50
2022-11-13T04:02:58.704Z,7.80
2022-11-13T04:03:58.685Z,9.40
2022-11-13T04:04:58.675Z,11.80
2022-11-13T04:05:58.782Z,10.30
2022-11-13T04:06:58.723Z,9.40
2022-11-13T04:07:58.662Z,9.80
2022-11-13T04:08:58.636Z,8.30
2022-11-13T04:09:58.640Z,9.60
2022-11-13T04:10:58.622Z,7.40
2022-11-13T04:11:58.617Z,8.60
2022-11-13T04:12:58.603Z,11.10
2022-11-13T04:13:58.605Z,9.10
2022-11-13T04:14:58.588Z,8.10
2022-11-13T04:15:58.563Z,9.70
2022-11-13T04:16:58.552Z,8.40
2022-11-13T04:17:58.532Z,10.90
2022-11-13T04:18:58.549Z,8.10
2022-11-13T04:19:58.516Z,6.30
2022-11-13T04:20:58.496Z,8.10
2022-11-13T04:21:58.603Z,8.00
2022-11-13T04:22:58.506Z,8.80
2022-11-13T04:23:58.472Z,8.40
2022-11-13T04:24:58.454Z,7.00
2022-11-13T04:25:58.454Z,8.90
2022-11-13T04:26:58.442Z,9.30
2022-11-13T04:27:58.430Z,9.60
2022-11-13T04:28:58.439Z,7.70
2022-11-13T04:29:58.425Z,8.30
2022-11-13T04:30:58.389Z,8.50
2022-11-13T04:31:58.391Z,9.40
2022-11-13T04:32:58.384Z,7.90
2022-11-13T04:33:58.365Z,9.40
2022-11-13T04:34:58.362Z,8.30
2022-11-13T04:35:58.354Z,10.80
2022-11-13T04:36:58.356Z,8.30
2022-11-13T04:37:58.351Z,10.40
2022-11-13T04:38:58.308Z,7.50
2022-11-13T04:39:58.309Z,11.30
2022-11-13T04:40:58.281Z,8.10
2022-11-13T04:41:58.300Z,9.30
2022-11-13T04:42:58.279Z,7.20
2022-11-13T04:43:58.252Z,8.90
2022-11-13T04:44:58.255Z,9.50
2022-11-13T04:45:58.232Z,8.20
2022-11-13T04:46:58.224Z,7.40
2022-11-13T04:47:58.209Z,7.90
2022-11-13T04:48:58.205Z,8.10
2022-11-13T04:49:58.182Z,8.40
2022-11-13T04:50:58.179Z,8.70
2022-11-13T04:51:58.164Z,10.60
2022-11-13T04:52:58.182Z,9.00
2022-11-13T04:53:58.263Z,10.60
2022-11-13T04:54:58.164Z,9.40
2022-11-13T04:55:58.140Z,8.90
2022-11-13T04:56:58.111Z,10.80
2022-11-13T04:57:58.108Z,9.20
2022-11-13T04:58:58.091Z,10.00
2022-11-13T04:59:58.074Z,7.00
2022-11-13T05:00:58.067Z,7.90
2022-11-13T05:01:58.125Z,8.60
2022-11-13T05:02:58.057Z,10.80
2022-11-13T05:03:58.033Z,9.70
2022-11-13T05:05:03.350Z,8.80
2022-11-13T05:05:59.046Z,7.70
2022-11-13T05:06:58.032Z,8.20
2022-11-13T05:07:57.999Z,9.40
2022-11-13T05:08:57.980Z,8.20
2022-11-13T05:09:58.078Z,8.50
2022-11-13T05:10:57.971Z,9.70
2022-11-13T05:11:57.940Z,10.30
2022-11-13T05:12:57.932Z,6.60
2022-11-13T05:14:03.019Z,7.50
2022-11-13T05:14:58.925Z,8.40
2022-11-13T05:15:57.903Z,8.40
2022-11-13T05:16:57.882Z,9.10
2022-11-13T05:17:57.878Z,6.50
2022-11-13T05:18:57.871Z,10.40
2022-11-13T05:19:57.871Z,8.50
2022-11-13T05:20:57.889Z,7.90
2022-11-13T05:21:57.834Z,8.20
2022-11-13T05:22:57.827Z,8.10
2022-11-13T05:23:57.828Z,8.50
2022-11-13T05:24:57.825Z,8.10
2022-11-13T05:25:57.913Z,9.30
2022-11-13T05:26:57.788Z,9.30
2022-11-13T05:27:57.769Z,9.00
2022-11-13T05:28:57.757Z,8.60
2022-11-13T05:29:57.752Z,8.10
2022-11-13T05:30:57.754Z,9.90
2022-11-13T05:31:57.732Z,10.80
2022-11-13T05:32:57.742Z,7.10
2022-11-13T05:34:02.573Z,8.00
2022-11-13T05:34:58.695Z,9.90
2022-11-13T05:35:57.676Z,7.10
2022-11-13T05:36:57.679Z,7.10
2022-11-13T05:37:57.682Z,9.50
2022-11-13T05:38:57.664Z,7.60
2022-11-13T05:39:57.642Z,6.80
2022-11-13T05:40:57.685Z,7.90
2022-11-13T05:41:57.726Z,10.50
2022-11-13T05:42:57.597Z,9.50
2022-11-13T05:43:59.643Z,8.40
2022-11-13T05:44:57.581Z,7.90
2022-11-13T05:45:57.567Z,7.50
2022-11-13T05:46:57.583Z,8.80
2022-11-13T05:47:57.560Z,7.00
2022-11-13T05:48:57.538Z,7.40
2022-11-13T05:49:57.535Z,6.30
2022-11-13T05:50:57.516Z,10.80
2022-11-13T05:51:57.518Z,5.80
2022-11-13T05:52:57.491Z,6.70
2022-11-13T05:53:57.495Z,7.80
2022-11-13T05:54:57.493Z,7.90
2022-11-13T05:55:57.474Z,7.60
2022-11-13T05:56:57.455Z,8.40
2022-11-13T05:57:57.566Z,7.40
2022-11-13T05:58:57.429Z,9.40
2022-11-13T05:59:57.423Z,8.20
2022-11-13T06:00:57.407Z,6.10
2022-11-13T06:01:57.437Z,9.30
2022-11-13T06:02:57.387Z,8.20
2022-11-13T06:03:57.398Z,6.60
2022-11-13T06:04:57.369Z,9.70
2022-11-13T06:05:57.353Z,7.40
2022-11-13T06:06:57.388Z,8.00
2022-11-13T06:07:57.333Z,7.40
2022-11-13T06:08:57.333Z,8.70
2022-11-13T06:09:57.323Z,6.80
2022-11-13T06:10:57.291Z,7.30
2022-11-13T06:11:57.288Z,6.80
2022-11-13T06:12:57.276Z,6.50
2022-11-13T06:13:57.319Z,7.60
2022-11-13T06:14:57.268Z,7.80
2022-11-13T06:15:57.256Z,8.80
2022-11-13T06:16:57.230Z,8.00
2022-11-13T06:17:57.235Z,8.20
2022-11-13T06:18:57.228Z,7.40
2022-11-13T06:19:57.220Z,7.80
2022-11-13T06:20:57.202Z,8.00
2022-11-13T06:21:57.174Z,8.80
2022-11-13T06:22:57.182Z,7.10
2022-11-13T06:23:57.159Z,8.70
2022-11-13T06:24:57.138Z,6.40
2022-11-13T06:25:57.171Z,8.40
2022-11-13T06:26:57.113Z,9.20
2022-11-13T06:27:57.119Z,8.00
2022-11-13T06:28:57.107Z,8.80
2022-11-13T06:29:57.207Z,8.40
2022-11-13T06:30:57.075Z,9.30
2022-11-13T06:31:57.059Z,7.20
2022-11-13T06:32:57.086Z,10.50
2022-11-13T06:33:57.060Z,7.90
2022-11-13T06:34:57.039Z,6.40
2022-11-13T06:35:57.040Z,7.20
2022-11-13T06:36:57.008Z,7.20
2022-11-13T06:37:57.056Z,6.30
2022-11-13T06:38:57.024Z,6.40
2022-11-13T06:39:56.989Z,7.50
2022-11-13T06:40:56.979Z,7.20
2022-11-13T06:41:56.957Z,6.80
2022-11-13T06:42:56.947Z,7.00
2022-11-13T06:44:02.074Z,9.50
2022-11-13T06:44:57.949Z,9.00
2022-11-13T06:45:57.033Z,8.20
2022-11-13T06:46:56.900Z,7.40
2022-11-13T06:47:56.891Z,8.00
2022-11-13T06:48:56.896Z,7.80
2022-11-13T06:49:56.893Z,7.50
2022-11-13T06:50:56.867Z,6.70
2022-11-13T06:51:56.843Z,7.90
2022-11-13T06:52:56.843Z,8.60
2022-11-13T06:53:56.844Z,9.70
2022-11-13T06:54:56.817Z,6.20
2022-11-13T06:55:56.839Z,7.20
2022-11-13T06:56:56.798Z,7.60
2022-11-13T06:57:56.786Z,8.20
2022-11-13T06:58:56.802Z,9.70
2022-11-13T06:59:56.766Z,6.70
2022-11-13T07:00:56.865Z,7.50
2022-11-13T07:01:56.855Z,9.10
2022-11-13T07:02:56.754Z,7.10
2022-11-13T07:03:56.727Z,11.00
2022-11-13T07:04:56.708Z,8.10
2022-11-13T07:05:56.702Z,7.00
2022-11-13T07:06:56.777Z,8.80
2022-11-13T07:07:56.670Z,8.20
2022-11-13T07:08:56.692Z,8.20
2022-11-13T07:09:56.650Z,8.20
2022-11-13T07:10:56.644Z,7.40
2022-11-13T07:11:56.637Z,8.70
2022-11-13T07:12:56.618Z,9.40
2022-11-13T07:13:56.635Z,8.20
2022-11-13T07:14:56.599Z,5.50
2022-11-13T07:15:56.592Z,7.50
2022-11-13T07:17:09.282Z,7.50
2022-11-13T07:17:57.708Z,6.20
2022-11-13T07:18:56.557Z,7.20
2022-11-13T07:19:56.568Z,6.70
2022-11-13T07:20:56.531Z,7.30
2022-11-13T07:21:56.535Z,6.40
2022-11-13T07:22:56.504Z,6.80
2022-11-13T07:23:56.512Z,7.00
2022-11-13T07:24:56.480Z,7.50
2022-11-13T07:25:56.495Z,7.20
2022-11-13T07:26:56.466Z,9.40
2022-11-13T07:27:56.456Z,6.80
2022-11-13T07:28:56.442Z,7.50
2022-11-13T07:30:00.852Z,6.10
2022-11-13T07:30:57.412Z,7.80
2022-11-13T07:31:56.403Z,6.50
2022-11-13T07:32:56.390Z,8.70
2022-11-13T07:33:56.511Z,6.00
2022-11-13T07:34:56.390Z,9.40
2022-11-13T07:35:56.375Z,7.10
2022-11-13T07:36:56.359Z,6.80
2022-11-13T07:37:56.355Z,7.60
2022-11-13T07:39:00.118Z,7.20
2022-11-13T07:39:56.318Z,7.70
2022-11-13T07:40:56.312Z,8.90
2022-11-13T07:41:56.324Z,7.00
2022-11-13T07:42:56.289Z,8.20
2022-11-13T07:43:56.289Z,6.00
2022-11-13T07:44:56.274Z,7.60
2022-11-13T07:45:56.252Z,8.40
2022-11-13T07:46:56.263Z,6.40
2022-11-13T07:47:56.258Z,7.90
2022-11-13T07:48:56.246Z,7.70
2022-11-13T07:50:03.398Z,7.10
2022-11-13T07:50:57.207Z,7.40
2022-11-13T07:51:56.196Z,6.70
2022-11-13T07:52:56.191Z,6.30
2022-11-13T07:53:56.172Z,6.30
2022-11-13T07:54:56.202Z,7.80
2022-11-13T07:55:56.141Z,9.20
2022-11-13T07:56:56.138Z,9.50
2022-11-13T07:57:56.130Z,5.80
2022-11-13T07:58:56.113Z,6.70
2022-11-13T07:59:56.117Z,6.10
2022-11-13T08:00:56.127Z,5.50
2022-11-13T08:01:56.072Z,6.60
2022-11-13T08:02:56.068Z,5.70
2022-11-13T08:03:56.079Z,5.90
2022-11-13T08:04:56.067Z,8.50
2022-11-13T08:05:56.145Z,6.70
2022-11-13T08:06:56.088Z,5.60
2022-11-13T08:07:56.010Z,6.60
2022-11-13T08:08:56.005Z,5.30
2022-11-13T08:09:55.986Z,6.20
2022-11-13T08:10:56.001Z,5.30
2022-11-13T08:11:55.970Z,6.20
2022-11-13T08:12:55.964Z,5.80
2022-11-13T08:13:55.968Z,6.70
2022-11-13T08:14:55.940Z,5.60
2022-11-13T08:15:55.930Z,6.60
2022-11-13T08:16:55.952Z,5.70
2022-11-13T08:17:55.900Z,5.60
2022-11-13T08:18:55.917Z,7.00
2022-11-13T08:19:55.883Z,6.70
2022-11-13T08:20:55.878Z,8.20
2022-11-13T08:21:55.984Z,7.20
2022-11-13T08:22:55.861Z,8.00
2022-11-13T08:23:55.831Z,5.90
2022-11-13T08:24:55.823Z,6.60
2022-11-13T08:25:55.847Z,7.10
2022-11-13T08:26:55.808Z,5.00
2022-11-13T08:27:55.792Z,5.80
2022-11-13T08:28:55.793Z,6.30
2022-11-13T08:29:55.789Z,6.20
2022-11-13T08:30:55.764Z,5.50
2022-11-13T08:31:55.761Z,5.90
2022-11-13T08:32:55.741Z,6.40
2022-11-13T08:33:55.747Z,5.40
2022-11-13T08:34:55.722Z,4.90
2022-11-13T08:35:55.710Z,5.40
2022-11-13T08:36:55.698Z,5.50
2022-11-13T08:37:55.800Z,6.10
2022-11-13T08:38:55.677Z,5.40
2022-11-13T08:39:55.656Z,5.10
2022-11-13T08:40:55.651Z,4.00
2022-11-13T08:41:55.646Z,6.70
2022-11-13T08:42:55.640Z,4.70
2022-11-13T08:43:55.622Z,4.50
2022-11-13T08:44:55.618Z,6.60
2022-11-13T08:45:55.615Z,5.50
2022-11-13T08:46:55.601Z,5.90
2022-11-13T08:47:55.568Z,6.80
2022-11-13T08:48:55.569Z,4.80
2022-11-13T08:49:55.569Z,5.70
2022-11-13T08:50:55.551Z,4.80
2022-11-13T08:51:55.550Z,6.20
2022-11-13T08:52:55.520Z,5.20
2022-11-13T08:53:55.691Z,5.20
2022-11-13T08:54:55.491Z,6.80
2022-11-13T08:55:55.487Z,4.30
2022-11-13T08:56:57.875Z,4.90
2022-11-13T08:57:55.467Z,6.40
2022-11-13T08:58:55.458Z,7.40
2022-11-13T08:59:55.453Z,6.10
2022-11-13T09:00:55.438Z,5.40
2022-11-13T09:01:55.433Z,4.80
2022-11-13T09:02:55.413Z,5.80
2022-11-13T09:03:55.519Z,5.80
2022-11-13T09:04:55.449Z,5.10
2022-11-13T09:05:55.387Z,6.50
2022-11-13T09:06:55.460Z,7.40
2022-11-13T09:07:55.348Z,4.60
2022-11-13T09:08:55.347Z,3.70
2022-11-13T09:09:55.463Z,5.20
2022-11-13T09:10:55.315Z,5.40
2022-11-13T09:11:55.335Z,7.10
2022-11-13T09:12:55.293Z,4.30
2022-11-13T09:13:55.292Z,5.80
2022-11-13T09:14:55.299Z,5.20
2022-11-13T09:15:55.274Z,5.40
2022-11-13T09:16:55.252Z,4.90
2022-11-13T09:17:55.272Z,4.70
2022-11-13T09:18:55.227Z,6.80
2022-11-13T09:19:55.230Z,6.40
2022-11-13T09:20:55.208Z,4.60
2022-11-13T09:21:55.210Z,4.70
2022-11-13T09:22:55.193Z,4.60
2022-11-13T09:23:55.172Z,6.50
2022-11-13T09:24:55.164Z,5.30
2022-11-13T09:25:55.296Z,4.60
2022-11-13T09:26:55.172Z,5.20
2022-11-13T09:27:55.168Z,4.10
2022-11-13T09:28:55.132Z,5.90
2022-11-13T09:29:55.864Z,4.30
2022-11-13T09:30:55.097Z,4.70
2022-11-13T09:31:55.109Z,3.50
2022-11-13T09:32:55.082Z,4.30
2022-11-13T09:33:55.084Z,4.60
2022-11-13T09:34:55.072Z,5.00
2022-11-13T09:35:55.070Z,5.10
2022-11-13T09:36:55.031Z,5.30
2022-11-13T09:37:55.034Z,5.10
2022-11-13T09:38:55.018Z,6.10
2022-11-13T09:39:54.998Z,4.60
2022-11-13T09:40:54.991Z,7.70
2022-11-13T09:41:55.094Z,6.00
2022-11-13T09:42:54.963Z,6.90
2022-11-13T09:43:59.534Z,5.40
2022-11-13T09:44:54.949Z,6.80
2022-11-13T09:45:54.929Z,5.20
2022-11-13T09:46:54.921Z,4.60
2022-11-13T09:47:54.918Z,6.00
2022-11-13T09:48:54.914Z,5.00
2022-11-13T09:49:54.909Z,5.80
2022-11-13T09:50:54.892Z,4.70
2022-11-13T09:51:54.874Z,5.50
2022-11-13T09:52:54.879Z,4.30
2022-11-13T09:53:54.854Z,6.40
2022-11-13T09:54:54.850Z,5.80
2022-11-13T09:55:54.827Z,4.20
2022-11-13T09:56:54.818Z,4.00
2022-11-13T09:57:54.927Z,3.80
2022-11-13T09:58:54.802Z,3.90
2022-11-13T09:59:54.785Z,4.30
2022-11-13T10:00:54.835Z,4.40
2022-11-13T10:01:54.789Z,5.70
2022-11-13T10:02:54.757Z,3.70
2022-11-13T10:04:01.416Z,4.00
2022-11-13T10:04:55.720Z,4.10
2022-11-13T10:05:54.720Z,3.60
2022-11-13T10:06:54.853Z,4.20
2022-11-13T10:07:54.696Z,4.50
2022-11-13T10:08:54.709Z,4.10
2022-11-13T10:09:54.681Z,5.70
2022-11-13T10:10:55.914Z,5.10
2022-11-13T10:11:54.671Z,6.10
2022-11-13T10:12:54.654Z,6.10
2022-11-13T10:13:54.759Z,5.50
2022-11-13T10:14:54.631Z,5.10
2022-11-13T10:15:54.612Z,4.30
2022-11-13T10:16:54.598Z,3.30
2022-11-13T10:17:56.767Z,4.80
2022-11-13T10:18:54.584Z,3.80
2022-11-13T10:19:54.584Z,3.90
2022-11-13T10:20:54.556Z,4.50
2022-11-13T10:22:07.741Z,3.70
2022-11-13T10:22:55.539Z,4.30
2022-11-13T10:23:54.518Z,4.70
2022-11-13T10:24:54.568Z,4.10
2022-11-13T10:25:54.510Z,5.20
2022-11-13T10:26:54.494Z,3.30
2022-11-13T10:27:54.514Z,4.00
2022-11-13T10:28:54.547Z,4.40
2022-11-13T10:29:54.584Z,4.00
2022-11-13T10:30:54.450Z,3.70
2022-11-13T10:31:54.443Z,5.60
2022-11-13T10:32:54.417Z,4.60
2022-11-13T10:33:54.421Z,4.20
2022-11-13T10:34:54.398Z,2.60
2022-11-13T10:35:54.406Z,3.60
2022-11-13T10:36:54.377Z,5.30
2022-11-13T10:37:54.384Z,3.70
2022-11-13T10:38:54.354Z,3.30
2022-11-13T10:39:54.344Z,3.20
2022-11-13T10:40:54.345Z,3.60
2022-11-13T10:41:54.333Z,4.30
2022-11-13T10:42:54.308Z,3.70
2022-11-13T10:43:54.310Z,3.30
2022-11-13T10:44:54.291Z,2.50
2022-11-13T10:45:54.415Z,4.10
2022-11-13T10:46:54.281Z,3.10
2022-11-13T10:48:04.176Z,2.90
2022-11-13T10:48:55.256Z,4.50
2022-11-13T10:49:54.232Z,2.60
2022-11-13T10:50:54.285Z,3.10
2022-11-13T10:51:54.230Z,2.80
2022-11-13T10:52:54.209Z,4.20
2022-11-13T10:53:54.192Z,4.80
2022-11-13T10:54:54.187Z,3.60
2022-11-13T10:55:54.175Z,4.10
2022-11-13T10:56:54.169Z,3.70
2022-11-13T10:57:56.486Z,3.40
2022-11-13T10:58:54.148Z,3.30
2022-11-13T10:59:54.136Z,3.40
2022-11-13T11:00:54.151Z,3.40
2022-11-13T11:01:54.232Z,3.10
2022-11-13T11:02:54.122Z,3.40
2022-11-13T11:03:54.089Z,4.00
2022-11-13T11:04:54.077Z,2.40
2022-11-13T11:05:54.066Z,3.40
2022-11-13T11:07:19.048Z,3.30
2022-11-13T11:07:55.086Z,4.60
2022-11-13T11:08:54.043Z,3.50
2022-11-13T11:09:54.015Z,3.10
2022-11-13T11:10:54.011Z,4.10
2022-11-13T11:11:53.997Z,4.20
2022-11-13T11:12:54.002Z,5.50
2022-11-13T11:13:53.974Z,2.60
2022-11-13T11:14:53.977Z,3.00
2022-11-13T11:15:53.949Z,3.20
2022-11-13T11:16:53.957Z,4.00
2022-11-13T11:17:54.047Z,3.20
2022-11-13T11:18:53.931Z,2.60
2022-11-13T11:19:53.915Z,3.40
2022-11-13T11:20:53.908Z,2.60
2022-11-13T11:21:53.898Z,3.80
2022-11-13T11:22:53.872Z,3.50
2022-11-13T11:23:56.268Z,3.90
2022-11-13T11:24:53.862Z,4.10
2022-11-13T11:25:53.846Z,3.50
2022-11-13T11:26:53.832Z,2.00
2022-11-13T11:27:53.820Z,2.80
2022-11-13T11:28:53.815Z,2.60
2022-11-13T11:29:53.817Z,3.30
2022-11-13T11:30:53.792Z,3.60
2022-11-13T11:31:53.794Z,4.00
2022-11-13T11:32:53.775Z,2.60
2022-11-13T11:33:53.875Z,2.10
2022-11-13T11:34:58.830Z,2.90
2022-11-13T11:35:54.758Z,2.20
2022-11-13T11:36:53.732Z,2.50
2022-11-13T11:37:53.708Z,2.70
2022-11-13T11:38:53.713Z,1.80
2022-11-13T11:39:53.693Z,3.10
2022-11-13T11:40:53.683Z,3.30
2022-11-13T11:41:53.665Z,2.70
2022-11-13T11:42:53.669Z,2.70
2022-11-13T11:43:53.650Z,2.40
2022-11-13T11:44:53.641Z,2.60
2022-11-13T11:45:53.636Z,2.90
2022-11-13T11:46:53.618Z,2.60
2022-11-13T11:47:53.615Z,3.40
2022-11-13T11:48:53.590Z,5.20
2022-11-13T11:49:53.700Z,3.40
2022-11-13T11:50:53.585Z,2.50
2022-11-13T11:51:53.557Z,2.80
2022-11-13T11:52:53.563Z,3.00
2022-11-13T11:53:53.541Z,2.00
2022-11-13T11:54:53.542Z,2.30
2022-11-13T11:55:53.519Z,2.70
2022-11-13T11:56:53.513Z,2.00
2022-11-13T11:57:53.493Z,3.30
2022-11-13T11:58:53.478Z,2.30
2022-11-13T11:59:53.486Z,2.60
2022-11-13T12:00:53.460Z,4.00
2022-11-13T12:01:53.456Z,3.40
2022-11-13T12:02:53.431Z,2.40
2022-11-13T12:03:53.426Z,3.50
2022-11-13T12:04:53.454Z,2.60
2022-11-13T12:05:53.516Z,2.20
2022-11-13T12:06:53.504Z,2.30
2022-11-13T12:07:53.388Z,3.40
2022-11-13T12:08:53.370Z,2.20
2022-11-13T12:09:53.355Z,2.00
2022-11-13T12:10:53.354Z,1.80
2022-11-13T12:11:53.333Z,2.40
2022-11-13T12:12:53.319Z,1.80
2022-11-13T12:13:53.309Z,2.40
2022-11-13T12:14:53.306Z,2.70
2022-11-13T12:15:53.289Z,3.20
2022-11-13T12:16:53.299Z,2.10
2022-11-13T12:17:53.266Z,3.00
2022-11-13T12:18:53.282Z,2.30
2022-11-13T12:19:53.251Z,2.40
2022-11-13T12:20:53.236Z,1.40
2022-11-13T12:21:53.340Z,2.00
2022-11-13T12:22:53.214Z,1.40
2022-11-13T12:23:53.196Z,1.40
2022-11-13T12:24:53.196Z,4.30
2022-11-13T12:25:53.180Z,1.50
2022-11-13T12:26:53.171Z,1.50
2022-11-13T12:27:53.175Z,3.30
2022-11-13T12:28:53.157Z,2.40
2022-11-13T12:29:53.129Z,1.50
2022-11-13T12:30:53.126Z,1.60
2022-11-13T12:31:53.106Z,3.00
2022-11-13T12:32:53.093Z,2.80
2022-11-13T12:33:56.930Z,2.00
2022-11-13T12:34:54.154Z,2.10
2022-11-13T12:35:53.059Z,2.20
2022-11-13T12:36:53.065Z,2.10
2022-11-13T12:37:53.163Z,1.50
2022-11-13T12:38:53.033Z,1.60
2022-11-13T12:39:53.015Z,1.30
2022-11-13T12:40:53.012Z,1.90
2022-11-13T12:41:52.999Z,2.60
2022-11-13T12:42:52.990Z,2.20
2022-11-13T12:43:52.976Z,2.60
2022-11-13T12:44:52.959Z,1.40
2022-11-13T12:45:52.985Z,1.70
2022-11-13T12:46:52.947Z,2.20
2022-11-13T12:47:52.925Z,2.30
2022-11-13T12:48:52.912Z,1.50
2022-11-13T12:49:52.910Z,1.90
2022-11-13T12:50:52.892Z,1.50
2022-11-13T12:51:52.887Z,1.90
2022-11-13T12:52:52.879Z,1.80
2022-11-13T12:53:52.977Z,2.10
2022-11-13T12:54:52.852Z,2.00
2022-11-13T12:55:52.834Z,1.50
2022-11-13T12:56:52.838Z,2.50
2022-11-13T12:57:52.838Z,1.90
2022-11-13T12:59:15.477Z,3.30
2022-11-13T12:59:53.793Z,1.50
2022-11-13T13:00:52.857Z,1.70
2022-11-13T13:01:52.816Z,1.40
2022-11-13T13:02:52.763Z,5.20
2022-11-13T13:03:52.751Z,2.20
2022-11-13T13:04:52.741Z,1.50
2022-11-13T13:05:52.734Z,1.40
2022-11-13T13:06:52.991Z,1.50
2022-11-13T13:07:52.716Z,2.00
2022-11-13T13:08:52.695Z,1.70
2022-11-13T13:09:52.804Z,1.50
2022-11-13T13:10:52.667Z,2.60
2022-11-13T13:11:52.667Z,1.90
2022-11-13T13:12:52.655Z,2.10
2022-11-13T13:13:52.637Z,2.30
2022-11-13T13:14:52.642Z,1.40
2022-11-13T13:15:52.617Z,2.30
2022-11-13T13:16:52.669Z,1.60
2022-11-13T13:17:52.587Z,2.20